CA-0508 weather

Farrow's Field
Ontario, Canada

Public forecast

Using degrees Celsius for public forecast. Weather courtesy of forecast.io.

Closest aviation weather report (METAR) to Farrow's Field

Closest report is Wiarton Airport, 19.7 nm (36.6 km) NNW. Retrieved 2019/10/18 08:00 UTC (5 minutes ago):

CYVV 180800Z 32005KT 280V350 15SM BKN026 05/02 A2995 RMK SC6 SLP148

Closest aviation forecast (TAF) to Farrow's Field

Forecast is more than 12 hours old.

Closest forecast is Wiarton Airport, 19.7 nm (36.6 km) NNW. Retrieved 2019/10/17 20:00 UTC (12 hours ago):

TAF CYVV 171945Z 1720/1723 33007KT P6SM OVC025 TEMPO 1720/1723 5SM -SHRA BR OVC020 RMK NXT FCST WILL BE ISSUED AT 181045Z